Time;durP1;ratioP1;P1;durP2;ratioP2;P2;SDS_P1;SDS_P2;PMS_P1;PMS_P2;Temp;Humidity;BMP_temperature;BMP_pressure;BME280_temperature;BME280_humidity;BME280_pressure;Samples;Min_cycle;Max_cycle;Signal;HPM_P1;HPM_P2
2022/10/20 00:00:18;;;;;;;;;;;;;;;;;;4997228;28;19993;-80
2022/10/20 00:02:46;;;;;;;;;;;;;;;;;;5008343;28;20423;-79
2022/10/20 00:05:12;;;;;;;;;;;;;;;;;;5036711;28;20484;-79
2022/10/20 00:07:39;;;;;;;;;;;;;;;;;;5035957;28;19925;-80
2022/10/20 00:10:06;;;;;;;;;;;;;;;;;;5036252;28;20012;-79
2022/10/20 00:12:32;;;;;;;;;;;;;;;;;;5036840;28;20375;-79
2022/10/20 00:14:59;;;;;;;;;;;;;;;;;;5037093;28;19991;-78
2022/10/20 00:17:25;;;;;;;;;;;;;;;;;;5038795;28;20008;-78
2022/10/20 00:19:53;;;;;;;;;;;;;;;;;;5040435;28;19968;-79
2022/10/20 00:22:19;;;;;;;;;;;;;;;;;;5039317;28;19956;-79
2022/10/20 00:24:46;;;;;;;;;;;;;;;;;;5037140;28;20376;-79
2022/10/20 00:27:12;;;;;;;;;;;;;;;;;;5037255;28;19948;-79
2022/10/20 00:29:39;;;;;;;;;;;;;;;;;;5040005;28;19988;-80
2022/10/20 00:32:05;;;;;;;;;;;;;;;;;;5040598;28;19984;-79
2022/10/20 00:34:32;;;;;;;;;;;;;;;;;;5040854;28;19969;-79
2022/10/20 00:37:00;;;;;;;;;;;;;;;;;;5037728;28;19987;-79
2022/10/20 00:39:27;;;;;;;;;;;;;;;;;;5037759;28;20036;-80
2022/10/20 00:41:53;;;;;;;;;;;;;;;;;;5037121;28;19956;-78
2022/10/20 00:44:38;;;;;;;;;;;;;;;;;;5037505;28;19969;-79
2022/10/20 00:47:05;;;;;;;;;;;;;;;;;;5036518;28;20002;-78
2022/10/20 00:49:31;;;;;;;;;;;;;;;;;;5036910;28;19933;-79
2022/10/20 00:51:57;;;;;;;;;;;;;;;;;;5036596;28;19972;-80
2022/10/20 00:54:26;;;;;;;;;;;;;;;;;;5036462;28;19975;-79
2022/10/20 00:56:54;;;;;;;;;;;;;;;;;;5036527;28;20015;-79
2022/10/20 00:59:22;;;;;;;;;;;;;;;;;;5036596;28;19925;-79
2022/10/20 01:01:49;;;;;;;;;;;;;;;;;;5037069;28;20012;-79
2022/10/20 01:04:16;;;;;;;;;;;;;;;;;;5017598;28;19933;-79
2022/10/20 01:06:42;;;;;;;;;;;;;;;;;;5016335;28;19969;-79
2022/10/20 01:09:09;;;;;;;;;;;;;;;;;;5015771;28;20012;-79
2022/10/20 01:11:42;;;;;;;;;;;;;;;;;;5016605;28;19976;-78
2022/10/20 01:14:24;;;;;;;;;;;;;;;;;;5016034;28;19948;-77
2022/10/20 01:16:54;;;;;;;;;;;;;;;;;;5013347;28;19965;-78
2022/10/20 01:19:41;;;;;;;;;;;;;;;;;;5026775;28;19965;-77
2022/10/20 01:22:28;;;;;;;;;;;;;;;;;;5028069;28;20408;-77
2022/10/20 01:25:00;;;;;;;;;;;;;;;;;;5021415;28;19972;-79
2022/10/20 01:27:30;;;;;;;;;;;;;;;;;;5017103;28;20351;-78
2022/10/20 01:30:00;;;;;;;;;;;;;;;;;;5019756;28;19933;-81
2022/10/20 01:32:32;;;;;;;;;;;;;;;;;;5022176;28;19986;-77
2022/10/20 01:35:03;;;;;;;;;;;;;;;;;;5017646;28;19988;-79
2022/10/20 01:37:35;;;;;;;;;;;;;;;;;;5016259;28;19926;-79
2022/10/20 01:40:06;;;;;;;;;;;;;;;;;;5015415;28;19976;-80
2022/10/20 01:42:34;;;;;;;;;;;;;;;;;;5016468;28;19926;-78
2022/10/20 01:45:04;;;;;;;;;;;;;;;;;;5015867;28;20632;-78
2022/10/20 01:47:32;;;;;;;;;;;;;;;;;;5015603;28;19968;-79
2022/10/20 01:49:58;;;;;;;;;;;;;;;;;;5016162;28;20372;-79
2022/10/20 01:52:27;;;;;;;;;;;;;;;;;;5015892;28;19960;-79
2022/10/20 01:54:53;;;;;;;;;;;;;;;;;;5015469;28;19988;-79
2022/10/20 01:57:25;;;;;;;;;;;;;;;;;;5015414;28;19964;-78
2022/10/20 01:59:59;;;;;;;;;;;;;;;;;;5016019;28;19925;-78
2022/10/20 02:02:32;;;;;;;;;;;;;;;;;;5018957;28;20360;-78
2022/10/20 02:05:04;;;;;;;;;;;;;;;;;;5035262;28;19997;-78
2022/10/20 02:07:32;;;;;;;;;;;;;;;;;;5034794;28;19979;-79
2022/10/20 02:10:03;;;;;;;;;;;;;;;;;;5036311;28;19976;-80
2022/10/20 02:12:32;;;;;;;;;;;;;;;;;;5036997;28;20020;-79
2022/10/20 02:15:00;;;;;;;;;;;;;;;;;;5035931;28;19968;-80
2022/10/20 02:17:28;;;;;;;;;;;;;;;;;;5035847;28;20004;-78
2022/10/20 02:19:56;;;;;;;;;;;;;;;;;;5036247;28;19980;-79
2022/10/20 02:22:23;;;;;;;;;;;;;;;;;;5036063;28;19972;-78
2022/10/20 02:24:51;;;;;;;;;;;;;;;;;;5035289;28;19964;-79
2022/10/20 02:27:22;;;;;;;;;;;;;;;;;;5035602;28;19965;-79
2022/10/20 02:29:50;;;;;;;;;;;;;;;;;;5035879;28;20019;-79
2022/10/20 02:32:18;;;;;;;;;;;;;;;;;;5037063;28;19925;-79
2022/10/20 02:34:44;;;;;;;;;;;;;;;;;;5038979;28;20367;-78
2022/10/20 02:37:11;;;;;;;;;;;;;;;;;;5038457;28;19943;-78
2022/10/20 02:39:37;;;;;;;;;;;;;;;;;;5039136;28;19981;-79
2022/10/20 02:42:04;;;;;;;;;;;;;;;;;;5039248;28;20311;-79
2022/10/20 02:44:30;;;;;;;;;;;;;;;;;;5038846;28;19929;-80
2022/10/20 02:46:57;;;;;;;;;;;;;;;;;;5038457;28;20012;-79
2022/10/20 02:49:26;;;;;;;;;;;;;;;;;;5039589;28;19939;-79
2022/10/20 02:51:52;;;;;;;;;;;;;;;;;;5039874;28;19925;-79
2022/10/20 02:54:19;;;;;;;;;;;;;;;;;;5039523;28;19971;-79
2022/10/20 02:56:45;;;;;;;;;;;;;;;;;;5046541;28;19964;-78
2022/10/20 02:59:12;;;;;;;;;;;;;;;;;;5047167;28;19996;-78
2022/10/20 03:01:39;;;;;;;;;;;;;;;;;;5046801;28;19929;-78
2022/10/20 03:04:05;;;;;;;;;;;;;;;;;;5025328;28;19979;-79
2022/10/20 03:06:33;;;;;;;;;;;;;;;;;;5019127;28;19973;-79
2022/10/20 03:09:00;;;;;;;;;;;;;;;;;;5018596;28;20046;-79
2022/10/20 03:11:27;;;;;;;;;;;;;;;;;;5019242;28;19925;-79
2022/10/20 03:13:53;;;;;;;;;;;;;;;;;;5019589;28;19976;-78
2022/10/20 03:16:20;;;;;;;;;;;;;;;;;;5019465;28;20365;-79
2022/10/20 03:18:46;;;;;;;;;;;;;;;;;;5018493;28;20288;-80
2022/10/20 03:21:13;;;;;;;;;;;;;;;;;;5018990;28;19976;-80
2022/10/20 03:23:41;;;;;;;;;;;;;;;;;;5018859;28;20012;-79
2022/10/20 03:26:09;;;;;;;;;;;;;;;;;;5018322;28;20627;-79
2022/10/20 03:28:36;;;;;;;;;;;;;;;;;;5018481;28;20020;-80
2022/10/20 03:31:03;;;;;;;;;;;;;;;;;;5017826;28;19985;-80
2022/10/20 03:33:29;;;;;;;;;;;;;;;;;;5018413;28;19980;-79
2022/10/20 03:35:56;;;;;;;;;;;;;;;;;;5018306;28;19979;-79
2022/10/20 03:38:23;;;;;;;;;;;;;;;;;;5022352;28;19961;-79
2022/10/20 03:40:50;;;;;;;;;;;;;;;;;;5024149;28;19967;-79
2022/10/20 03:43:17;;;;;;;;;;;;;;;;;;5021227;28;19996;-79
2022/10/20 03:45:44;;;;;;;;;;;;;;;;;;5020559;28;20377;-80
2022/10/20 03:48:11;;;;;;;;;;;;;;;;;;5020407;28;19956;-79
2022/10/20 03:50:37;;;;;;;;;;;;;;;;;;5020931;28;19925;-79
2022/10/20 03:53:04;;;;;;;;;;;;;;;;;;5020449;28;20024;-79
2022/10/20 03:55:30;;;;;;;;;;;;;;;;;;5020159;28;19971;-79
2022/10/20 03:57:58;;;;;;;;;;;;;;;;;;5020446;28;19965;-79
2022/10/20 04:00:25;;;;;;;;;;;;;;;;;;5020093;28;20381;-78
2022/10/20 04:02:52;;;;;;;;;;;;;;;;;;5019626;28;20020;-77
2022/10/20 04:05:19;;;;;;;;;;;;;;;;;;5020397;28;19926;-80
2022/10/20 04:07:46;;;;;;;;;;;;;;;;;;5023535;28;20367;-79
2022/10/20 04:10:13;;;;;;;;;;;;;;;;;;5021486;28;20368;-77
2022/10/20 04:12:39;;;;;;;;;;;;;;;;;;5016326;28;19964;-79
2022/10/20 04:15:08;;;;;;;;;;;;;;;;;;5018730;28;20012;-78
2022/10/20 04:17:35;;;;;;;;;;;;;;;;;;5018016;28;19926;-79
2022/10/20 04:20:02;;;;;;;;;;;;;;;;;;5020434;28;19980;-77
2022/10/20 04:22:28;;;;;;;;;;;;;;;;;;5020314;28;19972;-78
2022/10/20 04:24:55;;;;;;;;;;;;;;;;;;5022054;28;20028;-78
2022/10/20 04:27:21;;;;;;;;;;;;;;;;;;5023286;28;19988;-80
2022/10/20 04:29:48;;;;;;;;;;;;;;;;;;5021967;28;19925;-80
2022/10/20 04:32:16;;;;;;;;;;;;;;;;;;5018274;28;19925;-79
2022/10/20 04:34:42;;;;;;;;;;;;;;;;;;5017178;28;19944;-79
2022/10/20 04:37:09;;;;;;;;;;;;;;;;;;5016277;28;19991;-78
2022/10/20 04:39:35;;;;;;;;;;;;;;;;;;5017586;28;20385;-79
2022/10/20 04:42:02;;;;;;;;;;;;;;;;;;5017400;28;19926;-78
2022/10/20 04:44:28;;;;;;;;;;;;;;;;;;5016058;28;19952;-79
2022/10/20 04:46:55;;;;;;;;;;;;;;;;;;5016838;28;19957;-81
2022/10/20 04:49:23;;;;;;;;;;;;;;;;;;5015956;28;20020;-79
2022/10/20 04:51:49;;;;;;;;;;;;;;;;;;5015739;28;20012;-81
2022/10/20 04:54:16;;;;;;;;;;;;;;;;;;5015987;28;20359;-80
2022/10/20 04:56:42;;;;;;;;;;;;;;;;;;5017144;28;19976;-79
2022/10/20 04:59:09;;;;;;;;;;;;;;;;;;5017743;28;19965;-77
2022/10/20 05:01:35;;;;;;;;;;;;;;;;;;5016640;28;20020;-78
2022/10/20 05:04:01;;;;;;;;;;;;;;;;;;5032908;28;19971;-80
2022/10/20 05:06:30;;;;;;;;;;;;;;;;;;5036152;28;19925;-80
2022/10/20 05:08:57;;;;;;;;;;;;;;;;;;5034832;28;19976;-80
2022/10/20 05:11:24;;;;;;;;;;;;;;;;;;5035691;28;20571;-79
2022/10/20 05:13:51;;;;;;;;;;;;;;;;;;5035860;28;19929;-80
2022/10/20 05:16:18;;;;;;;;;;;;;;;;;;5049599;28;19925;-77
2022/10/20 05:18:44;;;;;;;;;;;;;;;;;;5052760;28;19936;-78
2022/10/20 05:21:12;;;;;;;;;;;;;;;;;;5045328;28;19972;-80
2022/10/20 05:23:40;;;;;;;;;;;;;;;;;;5037100;28;19964;-80
2022/10/20 05:26:08;;;;;;;;;;;;;;;;;;5036549;28;20025;-80
2022/10/20 05:28:34;;;;;;;;;;;;;;;;;;5036902;28;20012;-80
2022/10/20 05:31:01;;;;;;;;;;;;;;;;;;5036875;28;20305;-79
2022/10/20 05:33:28;;;;;;;;;;;;;;;;;;5036139;28;19932;-80
2022/10/20 05:35:54;;;;;;;;;;;;;;;;;;5035806;28;19968;-80
2022/10/20 05:38:21;;;;;;;;;;;;;;;;;;5035634;28;19933;-79
2022/10/20 05:40:48;;;;;;;;;;;;;;;;;;5035659;28;19929;-79
2022/10/20 05:43:15;;;;;;;;;;;;;;;;;;5034806;28;19925;-79
2022/10/20 05:45:41;;;;;;;;;;;;;;;;;;5033998;28;20023;-81
2022/10/20 05:48:08;;;;;;;;;;;;;;;;;;5033761;28;19975;-79
2022/10/20 05:50:34;;;;;;;;;;;;;;;;;;5034290;28;19925;-80
2022/10/20 05:53:01;;;;;;;;;;;;;;;;;;5034737;28;20027;-81
2022/10/20 05:55:27;;;;;;;;;;;;;;;;;;5034323;28;19972;-80
2022/10/20 05:57:55;;;;;;;;;;;;;;;;;;5033998;28;20424;-80
2022/10/20 06:00:29;;;;;;;;;;;;;;;;;;5034256;28;19929;-80
2022/10/20 06:02:56;;;;;;;;;;;;;;;;;;5027347;28;19932;-80
2022/10/20 06:05:23;;;;;;;;;;;;;;;;;;5015102;28;19925;-80
2022/10/20 06:07:49;;;;;;;;;;;;;;;;;;5017876;28;20048;-80
2022/10/20 06:10:16;;;;;;;;;;;;;;;;;;5018512;28;19925;-80
2022/10/20 06:12:43;;;;;;;;;;;;;;;;;;5016773;28;20125;-79
2022/10/20 06:15:11;;;;;;;;;;;;;;;;;;5018246;28;19961;-80
2022/10/20 06:17:37;;;;;;;;;;;;;;;;;;5018839;28;19925;-79
2022/10/20 06:20:04;;;;;;;;;;;;;;;;;;5018999;28;20352;-80
2022/10/20 06:22:30;;;;;;;;;;;;;;;;;;5018766;28;19976;-80
2022/10/20 06:24:57;;;;;;;;;;;;;;;;;;5018313;28;20009;-80
2022/10/20 06:27:23;;;;;;;;;;;;;;;;;;5017900;28;20012;-79
2022/10/20 06:29:50;;;;;;;;;;;;;;;;;;5017986;28;20349;-80
2022/10/20 06:32:18;;;;;;;;;;;;;;;;;;5017702;28;19925;-79
2022/10/20 06:34:44;;;;;;;;;;;;;;;;;;5017657;28;20020;-79
2022/10/20 06:37:10;;;;;;;;;;;;;;;;;;5017835;28;20008;-80
2022/10/20 06:39:37;;;;;;;;;;;;;;;;;;5017726;28;20020;-81
2022/10/20 06:42:04;;;;;;;;;;;;;;;;;;5018569;28;20528;-81
2022/10/20 06:44:31;;;;;;;;;;;;;;;;;;5018233;28;19929;-81
2022/10/20 06:46:57;;;;;;;;;;;;;;;;;;5017174;28;19925;-81
2022/10/20 06:49:25;;;;;;;;;;;;;;;;;;5017810;28;20020;-80
2022/10/20 06:51:51;;;;;;;;;;;;;;;;;;5017366;28;20470;-80
2022/10/20 06:54:18;;;;;;;;;;;;;;;;;;5018287;28;20443;-80
2022/10/20 06:56:44;;;;;;;;;;;;;;;;;;5017936;28;19975;-77
2022/10/20 06:59:11;;;;;;;;;;;;;;;;;;5018007;28;20440;-79
2022/10/20 07:01:38;;;;;;;;;;;;;;;;;;5018818;28;20468;-80
2022/10/20 07:04:06;;;;;;;;;;;;;;;;;;5034657;28;20012;-79
2022/10/20 07:06:34;;;;;;;;;;;;;;;;;;5037255;28;20019;-80
2022/10/20 07:09:02;;;;;;;;;;;;;;;;;;5037131;28;20032;-80
2022/10/20 07:11:29;;;;;;;;;;;;;;;;;;5039002;28;19975;-80
2022/10/20 07:13:57;;;;;;;;;;;;;;;;;;5038831;28;19968;-80
2022/10/20 07:16:24;;;;;;;;;;;;;;;;;;5038818;28;19960;-80
2022/10/20 07:18:51;;;;;;;;;;;;;;;;;;5039904;28;19925;-79
2022/10/20 07:21:18;;;;;;;;;;;;;;;;;;5044350;28;19958;-80
2022/10/20 07:23:47;;;;;;;;;;;;;;;;;;5032553;28;20317;-79
2022/10/20 07:26:14;;;;;;;;;;;;;;;;;;5023346;28;19965;-79
2022/10/20 07:28:41;;;;;;;;;;;;;;;;;;5017079;28;19926;-79
2022/10/20 07:31:09;;;;;;;;;;;;;;;;;;5018022;28;19932;-79
2022/10/20 07:33:37;;;;;;;;;;;;;;;;;;5015262;28;20016;-79
2022/10/20 07:36:10;;;;;;;;;;;;;;;;;;5015248;28;19976;-80
2022/10/20 07:38:37;;;;;;;;;;;;;;;;;;5015631;28;20490;-79
2022/10/20 07:41:04;;;;;;;;;;;;;;;;;;5015565;28;20024;-79
2022/10/20 07:43:31;;;;;;;;;;;;;;;;;;5016616;28;20415;-80
2022/10/20 07:45:57;;;;;;;;;;;;;;;;;;5016830;28;20036;-78
2022/10/20 07:48:24;;;;;;;;;;;;;;;;;;5015277;28;19926;-79
2022/10/20 07:50:50;;;;;;;;;;;;;;;;;;5014785;28;19925;-78
2022/10/20 07:53:17;;;;;;;;;;;;;;;;;;5015247;28;19983;-79
2022/10/20 07:55:44;;;;;;;;;;;;;;;;;;5014602;28;20004;-80
2022/10/20 07:58:12;;;;;;;;;;;;;;;;;;5014642;28;20466;-77
2022/10/20 08:00:39;;;;;;;;;;;;;;;;;;5015885;28;19964;-82
2022/10/20 08:03:05;;;;;;;;;;;;;;;;;;5022938;28;19971;-78
2022/10/20 08:05:31;;;;;;;;;;;;;;;;;;5033733;28;19967;-79
2022/10/20 08:07:59;;;;;;;;;;;;;;;;;;5033514;28;20365;-80
2022/10/20 08:10:26;;;;;;;;;;;;;;;;;;5033855;28;19936;-79
2022/10/20 08:12:52;;;;;;;;;;;;;;;;;;5035434;28;19976;-81
2022/10/20 08:15:20;;;;;;;;;;;;;;;;;;5034775;28;19965;-79
2022/10/20 08:17:46;;;;;;;;;;;;;;;;;;5039971;28;20407;-78
2022/10/20 08:20:13;;;;;;;;;;;;;;;;;;5045823;28;19985;-78
2022/10/20 08:22:39;;;;;;;;;;;;;;;;;;5046842;28;19925;-78
2022/10/20 08:25:06;;;;;;;;;;;;;;;;;;5042257;28;19932;-80
2022/10/20 08:27:33;;;;;;;;;;;;;;;;;;5034328;28;19925;-81
2022/10/20 08:29:59;;;;;;;;;;;;;;;;;;5033129;28;19925;-80
2022/10/20 08:32:27;;;;;;;;;;;;;;;;;;5034028;28;19968;-81
2022/10/20 08:34:53;;;;;;;;;;;;;;;;;;5034472;28;19925;-80
2022/10/20 08:37:20;;;;;;;;;;;;;;;;;;5033690;28;19972;-80
2022/10/20 08:39:46;;;;;;;;;;;;;;;;;;5034025;28;20007;-80
2022/10/20 08:42:13;;;;;;;;;;;;;;;;;;5035558;28;19929;-79
2022/10/20 08:44:40;;;;;;;;;;;;;;;;;;5035304;28;19925;-79
2022/10/20 08:47:15;;;;;;;;;;;;;;;;;;5035456;28;19963;-80
2022/10/20 08:49:44;;;;;;;;;;;;;;;;;;5035460;28;19983;-79
2022/10/20 08:52:12;;;;;;;;;;;;;;;;;;5034855;28;19929;-80
2022/10/20 08:54:39;;;;;;;;;;;;;;;;;;5034441;28;19967;-79
2022/10/20 08:57:14;;;;;;;;;;;;;;;;;;5034413;28;19968;-79
2022/10/20 08:59:40;;;;;;;;;;;;;;;;;;5034502;28;19975;-78
2022/10/20 09:02:13;;;;;;;;;;;;;;;;;;5034135;28;19976;-79
2022/10/20 09:04:42;;;;;;;;;;;;;;;;;;5034101;28;19960;-78
2022/10/20 09:07:15;;;;;;;;;;;;;;;;;;5034277;28;19925;-79
2022/10/20 09:09:42;;;;;;;;;;;;;;;;;;5037072;28;19932;-78
2022/10/20 09:12:12;;;;;;;;;;;;;;;;;;5046330;28;19964;-78
2022/10/20 09:14:39;;;;;;;;;;;;;;;;;;5048474;28;19944;-78
2022/10/20 09:17:06;;;;;;;;;;;;;;;;;;5041838;28;19964;-78
2022/10/20 09:19:32;;;;;;;;;;;;;;;;;;5037553;28;20008;-80
2022/10/20 09:22:02;;;;;;;;;;;;;;;;;;5033188;28;20012;-79
2022/10/20 09:24:30;;;;;;;;;;;;;;;;;;5015665;28;19976;-79
2022/10/20 09:26:57;;;;;;;;;;;;;;;;;;5014375;28;20400;-77
2022/10/20 09:29:34;;;;;;;;;;;;;;;;;;5015330;28;20015;-80
2022/10/20 09:32:01;;;;;;;;;;;;;;;;;;5013472;28;20017;-79
2022/10/20 09:34:28;;;;;;;;;;;;;;;;;;5013450;28;19999;-79
2022/10/20 09:36:57;;;;;;;;;;;;;;;;;;5012702;28;19965;-78
2022/10/20 09:39:26;;;;;;;;;;;;;;;;;;5012757;28;20008;-79
2022/10/20 09:42:01;;;;;;;;;;;;;;;;;;5015515;28;19929;-79
2022/10/20 09:44:27;;;;;;;;;;;;;;;;;;5016864;28;19936;-79
2022/10/20 09:46:54;;;;;;;;;;;;;;;;;;5016653;28;19965;-79
2022/10/20 09:49:25;;;;;;;;;;;;;;;;;;5016526;28;20020;-79
2022/10/20 09:51:52;;;;;;;;;;;;;;;;;;5015097;28;20012;-78
2022/10/20 09:54:19;;;;;;;;;;;;;;;;;;4997051;28;20013;-78
2022/10/20 09:56:48;;;;;;;;;;;;;;;;;;4999432;28;19930;-77
2022/10/20 09:59:21;;;;;;;;;;;;;;;;;;4996398;28;20024;-79
2022/10/20 10:01:54;;;;;;;;;;;;;;;;;;4996983;28;19932;-79
2022/10/20 10:04:31;;;;;;;;;;;;;;;;;;4996522;28;19926;-79
2022/10/20 10:06:58;;;;;;;;;;;;;;;;;;4996112;28;19988;-78
2022/10/20 10:09:29;;;;;;;;;;;;;;;;;;4996497;28;19926;-78
2022/10/20 10:11:58;;;;;;;;;;;;;;;;;;4996408;28;20584;-79
2022/10/20 10:14:26;;;;;;;;;;;;;;;;;;4996641;28;19999;-79
2022/10/20 10:16:52;;;;;;;;;;;;;;;;;;4995916;28;20017;-79
2022/10/20 10:19:20;;;;;;;;;;;;;;;;;;4998261;28;19973;-79
2022/10/20 10:21:48;;;;;;;;;;;;;;;;;;4999325;28;19981;-78
2022/10/20 10:24:35;;;;;;;;;;;;;;;;;;4997439;28;19957;-78
2022/10/20 10:27:02;;;;;;;;;;;;;;;;;;4989842;28;20649;-78
2022/10/20 10:29:31;;;;;;;;;;;;;;;;;;4995254;28;19926;-78
2022/10/20 10:32:00;;;;;;;;;;;;;;;;;;4994792;28;19965;-77
2022/10/20 10:34:40;;;;;;;;;;;;;;;;;;4994337;28;19980;-77
2022/10/20 10:37:08;;;;;;;;;;;;;;;;;;4994117;28;19926;-77
2022/10/20 10:39:35;;;;;;;;;;;;;;;;;;4994292;28;20005;-77
2022/10/20 10:42:08;;;;;;;;;;;;;;;;;;4994344;28;19965;-77
2022/10/20 10:44:41;;;;;;;;;;;;;;;;;;4994319;28;19932;-77
2022/10/20 10:47:18;;;;;;;;;;;;;;;;;;4993689;28;20005;-76
2022/10/20 10:49:51;;;;;;;;;;;;;;;;;;4993985;28;20008;-77
2022/10/20 10:52:23;;;;;;;;;;;;;;;;;;4995096;28;19965;-81
2022/10/20 10:54:56;;;;;;;;;;;;;;;;;;4999643;28;20028;-79
2022/10/20 10:57:25;;;;;;;;;;;;;;;;;;4996297;28;19930;-77
2022/10/20 10:59:53;;;;;;;;;;;;;;;;;;4996690;28;19965;-80
2022/10/20 11:02:33;;;;;;;;;;;;;;;;;;5005373;28;19973;-80
2022/10/20 11:05:21;;;;;;;;;;;;;;;;;;5038390;28;19964;-77
2022/10/20 11:07:51;;;;;;;;;;;;;;;;;;5032505;28;20036;-78
2022/10/20 11:10:20;;;;;;;;;;;;;;;;;;5034233;28;20012;-77
2022/10/20 11:12:57;;;;;;;;;;;;;;;;;;5034304;28;19960;-79
2022/10/20 11:15:31;;;;;;;;;;;;;;;;;;5034125;28;20455;-80
2022/10/20 11:18:04;;;;;;;;;;;;;;;;;;5026584;28;19932;-77
2022/10/20 11:20:35;;;;;;;;;;;;;;;;;;5020188;28;19961;-77
2022/10/20 11:23:12;;;;;;;;;;;;;;;;;;5018726;28;19925;-79
2022/10/20 11:25:41;;;;;;;;;;;;;;;;;;5018035;28;19971;-77
2022/10/20 11:28:19;;;;;;;;;;;;;;;;;;5024516;28;19961;-77
2022/10/20 11:30:47;;;;;;;;;;;;;;;;;;5022541;28;19935;-77
2022/10/20 11:33:16;;;;;;;;;;;;;;;;;;5019513;28;20354;-78
2022/10/20 11:35:45;;;;;;;;;;;;;;;;;;5032819;28;20008;-78
2022/10/20 11:38:15;;;;;;;;;;;;;;;;;;5023159;28;20020;-78
2022/10/20 11:40:44;;;;;;;;;;;;;;;;;;5022671;28;19969;-78
2022/10/20 11:43:16;;;;;;;;;;;;;;;;;;5022466;28;19961;-78
2022/10/20 11:45:47;;;;;;;;;;;;;;;;;;5022974;28;19968;-79
2022/10/20 11:48:18;;;;;;;;;;;;;;;;;;5023099;28;20458;-78
2022/10/20 11:50:49;;;;;;;;;;;;;;;;;;5029988;28;19929;-78
2022/10/20 11:53:31;;;;;;;;;;;;;;;;;;5025078;28;20020;-77
2022/10/20 11:56:05;;;;;;;;;;;;;;;;;;5016159;28;19969;-77
2022/10/20 11:58:41;;;;;;;;;;;;;;;;;;5018932;28;20023;-77
2022/10/20 12:01:21;;;;;;;;;;;;;;;;;;5028813;28;20390;-77
2022/10/20 12:04:01;;;;;;;;;;;;;;;;;;5018162;28;19926;-77
2022/10/20 12:06:35;;;;;;;;;;;;;;;;;;5018261;28;20009;-77
2022/10/20 12:09:20;;;;;;;;;;;;;;;;;;5024819;28;20392;-77
2022/10/20 12:11:49;;;;;;;;;;;;;;;;;;4988786;28;19970;-78
2022/10/20 12:14:20;;;;;;;;;;;;;;;;;;5016791;28;20402;-77
2022/10/20 12:17:03;;;;;;;;;;;;;;;;;;5029656;28;20470;-78
2022/10/20 12:19:32;;;;;;;;;;;;;;;;;;5019185;28;19925;-78
2022/10/20 12:21:59;;;;;;;;;;;;;;;;;;5015760;28;19926;-78
2022/10/20 12:24:30;;;;;;;;;;;;;;;;;;5015791;28;19925;-78
2022/10/20 12:27:11;;;;;;;;;;;;;;;;;;5032570;28;20347;-78
2022/10/20 12:29:49;;;;;;;;;;;;;;;;;;5032556;28;20392;-78
2022/10/20 12:32:43;;;;;;;;;;;;;;;;;;5033217;28;19925;-78
2022/10/20 12:35:28;;;;;;;;;;;;;;;;;;5033041;28;20032;-78
2022/10/20 12:37:57;;;;;;;;;;;;;;;;;;5032226;28;20383;-78
2022/10/20 12:40:25;;;;;;;;;;;;;;;;;;5030214;28;20003;-78
2022/10/20 12:42:53;;;;;;;;;;;;;;;;;;5023908;28;20259;-78
2022/10/20 12:45:30;;;;;;;;;;;;;;;;;;5018217;28;19925;-78
2022/10/20 12:47:58;;;;;;;;;;;;;;;;;;5015444;28;19926;-78
2022/10/20 12:50:29;;;;;;;;;;;;;;;;;;5021616;28;19932;-78
2022/10/20 12:52:57;;;;;;;;;;;;;;;;;;5020493;28;19929;-79
2022/10/20 12:55:27;;;;;;;;;;;;;;;;;;5014499;28;19925;-77
2022/10/20 12:58:09;;;;;;;;;;;;;;;;;;5020947;28;19925;-77
2022/10/20 13:00:56;;;;;;;;;;;;;;;;;;5027388;28;20012;-77
2022/10/20 13:03:37;;;;;;;;;;;;;;;;;;5031387;28;19932;-77
2022/10/20 13:06:25;;;;;;;;;;;;;;;;;;5030790;28;19980;-76
2022/10/20 13:09:06;;;;;;;;;;;;;;;;;;5039672;28;20019;-76
2022/10/20 13:11:41;;;;;;;;;;;;;;;;;;5038183;28;19976;-75
2022/10/20 13:14:22;;;;;;;;;;;;;;;;;;5034420;28;19972;-77
2022/10/20 13:16:50;;;;;;;;;;;;;;;;;;5017242;28;20020;-77
2022/10/20 13:19:20;;;;;;;;;;;;;;;;;;5031587;28;19964;-77
2022/10/20 13:21:47;;;;;;;;;;;;;;;;;;5031468;28;19929;-77
2022/10/20 13:24:15;;;;;;;;;;;;;;;;;;5031150;28;19925;-76
2022/10/20 13:26:50;;;;;;;;;;;;;;;;;;5019360;28;19925;-77
2022/10/20 13:29:19;;;;;;;;;;;;;;;;;;5011165;28;20029;-77
2022/10/20 13:31:48;;;;;;;;;;;;;;;;;;5011406;28;19929;-77
2022/10/20 13:34:18;;;;;;;;;;;;;;;;;;5011616;28;20483;-77
2022/10/20 13:36:50;;;;;;;;;;;;;;;;;;5010710;28;20304;-77
2022/10/20 13:39:20;;;;;;;;;;;;;;;;;;5019172;28;19952;-77
2022/10/20 13:41:53;;;;;;;;;;;;;;;;;;5024906;28;19929;-77
2022/10/20 13:44:24;;;;;;;;;;;;;;;;;;5020397;28;20005;-76
2022/10/20 13:46:57;;;;;;;;;;;;;;;;;;5024828;28;20062;-77
2022/10/20 13:49:30;;;;;;;;;;;;;;;;;;5018974;28;19968;-78
2022/10/20 13:51:59;;;;;;;;;;;;;;;;;;5019693;28;20384;-75
2022/10/20 13:54:27;;;;;;;;;;;;;;;;;;5015905;28;20262;-77
2022/10/20 13:56:54;;;;;;;;;;;;;;;;;;5011441;28;20003;-77
2022/10/20 13:59:22;;;;;;;;;;;;;;;;;;5012405;28;19932;-79
2022/10/20 14:01:51;;;;;;;;;;;;;;;;;;5015617;28;20273;-78
2022/10/20 14:04:25;;;;;;;;;;;;;;;;;;5023269;28;19980;-77
2022/10/20 14:06:51;;;;;;;;;;;;;;;;;;5034150;28;19967;-77
2022/10/20 14:09:19;;;;;;;;;;;;;;;;;;5024652;28;19973;-78
2022/10/20 14:11:46;;;;;;;;;;;;;;;;;;5022688;28;20011;-81
2022/10/20 14:14:14;;;;;;;;;;;;;;;;;;5034603;28;20040;-81
2022/10/20 14:16:51;;;;;;;;;;;;;;;;;;5012919;28;19932;-79
2022/10/20 14:19:20;;;;;;;;;;;;;;;;;;5014114;28;20361;-79
2022/10/20 14:21:49;;;;;;;;;;;;;;;;;;5022478;28;19925;-79
2022/10/20 14:24:21;;;;;;;;;;;;;;;;;;5023827;28;19935;-78
2022/10/20 14:26:48;;;;;;;;;;;;;;;;;;5026969;28;19998;-79
2022/10/20 14:29:17;;;;;;;;;;;;;;;;;;5036573;28;19925;-79
2022/10/20 14:31:44;;;;;;;;;;;;;;;;;;5026305;28;19987;-78
2022/10/20 14:34:19;;;;;;;;;;;;;;;;;;5015886;28;20020;-79
2022/10/20 14:36:47;;;;;;;;;;;;;;;;;;5016308;28;19929;-79
2022/10/20 14:39:20;;;;;;;;;;;;;;;;;;5016734;28;19925;-80
2022/10/20 14:41:47;;;;;;;;;;;;;;;;;;5021276;28;19968;-79
2022/10/20 14:44:18;;;;;;;;;;;;;;;;;;5026372;28;19975;-79
2022/10/20 14:46:45;;;;;;;;;;;;;;;;;;5023740;28;19925;-79
2022/10/20 14:49:14;;;;;;;;;;;;;;;;;;5026136;28;20029;-79
2022/10/20 14:51:43;;;;;;;;;;;;;;;;;;5025886;28;20016;-78
2022/10/20 14:54:25;;;;;;;;;;;;;;;;;;5023487;28;19925;-78
2022/10/20 14:56:52;;;;;;;;;;;;;;;;;;5023017;28;19985;-78
2022/10/20 14:59:20;;;;;;;;;;;;;;;;;;5023527;28;20353;-78
2022/10/20 15:02:07;;;;;;;;;;;;;;;;;;5021755;28;19981;-76
2022/10/20 15:04:33;;;;;;;;;;;;;;;;;;5029073;28;20336;-79
2022/10/20 15:07:10;;;;;;;;;;;;;;;;;;5035309;28;20403;-78
2022/10/20 15:09:40;;;;;;;;;;;;;;;;;;5035529;28;19999;-77
2022/10/20 15:12:07;;;;;;;;;;;;;;;;;;5037062;28;20404;-79
2022/10/20 15:14:34;;;;;;;;;;;;;;;;;;5038498;28;19925;-79
2022/10/20 15:17:00;;;;;;;;;;;;;;;;;;5037693;28;19925;-78
2022/10/20 15:19:31;;;;;;;;;;;;;;;;;;5035696;28;19932;-79
2022/10/20 15:22:00;;;;;;;;;;;;;;;;;;5036483;28;19975;-79
2022/10/20 15:24:27;;;;;;;;;;;;;;;;;;5037360;28;19925;-78
2022/10/20 15:26:55;;;;;;;;;;;;;;;;;;5037150;28;19964;-79
2022/10/20 15:29:21;;;;;;;;;;;;;;;;;;5036834;28;19964;-79
2022/10/20 15:31:48;;;;;;;;;;;;;;;;;;5037474;28;19948;-79
2022/10/20 15:34:14;;;;;;;;;;;;;;;;;;5038659;28;19976;-79
2022/10/20 15:36:41;;;;;;;;;;;;;;;;;;5039446;28;19925;-79
2022/10/20 15:39:07;;;;;;;;;;;;;;;;;;5036539;28;19971;-78
2022/10/20 15:41:35;;;;;;;;;;;;;;;;;;5037683;28;20392;-79
2022/10/20 15:44:07;;;;;;;;;;;;;;;;;;5038292;28;20443;-78
2022/10/20 15:46:33;;;;;;;;;;;;;;;;;;5038566;28;20380;-79
2022/10/20 15:49:00;;;;;;;;;;;;;;;;;;5037117;28;19947;-78
2022/10/20 15:51:27;;;;;;;;;;;;;;;;;;5040262;28;19929;-77
2022/10/20 15:53:54;;;;;;;;;;;;;;;;;;5041005;28;19931;-77
2022/10/20 15:56:20;;;;;;;;;;;;;;;;;;5040023;28;19979;-78
2022/10/20 15:58:48;;;;;;;;;;;;;;;;;;5040997;28;20379;-78
2022/10/20 16:01:16;;;;;;;;;;;;;;;;;;5042481;28;19925;-78
2022/10/20 16:03:43;;;;;;;;;;;;;;;;;;5030792;28;20016;-77
2022/10/20 16:06:12;;;;;;;;;;;;;;;;;;5022353;28;20452;-77
2022/10/20 16:08:38;;;;;;;;;;;;;;;;;;5022304;28;19989;-77
2022/10/20 16:11:05;;;;;;;;;;;;;;;;;;5022267;28;19925;-78
2022/10/20 16:13:31;;;;;;;;;;;;;;;;;;5021956;28;19930;-78
2022/10/20 16:15:58;;;;;;;;;;;;;;;;;;5021865;28;19967;-78
2022/10/20 16:18:25;;;;;;;;;;;;;;;;;;5020632;28;19932;-77
2022/10/20 16:20:52;;;;;;;;;;;;;;;;;;5021726;28;19984;-77
2022/10/20 16:23:18;;;;;;;;;;;;;;;;;;5022154;28;19925;-77
2022/10/20 16:25:45;;;;;;;;;;;;;;;;;;5021658;28;19926;-78
2022/10/20 16:28:11;;;;;;;;;;;;;;;;;;5020073;28;19985;-77
2022/10/20 16:30:38;;;;;;;;;;;;;;;;;;5022320;28;19948;-79
2022/10/20 16:33:04;;;;;;;;;;;;;;;;;;5023772;28;19960;-78
2022/10/20 16:35:32;;;;;;;;;;;;;;;;;;5022130;28;19953;-78
2022/10/20 16:37:59;;;;;;;;;;;;;;;;;;5020896;28;19965;-78
2022/10/20 16:40:26;;;;;;;;;;;;;;;;;;5020301;28;19968;-78
2022/10/20 16:42:52;;;;;;;;;;;;;;;;;;5018233;28;19953;-79
2022/10/20 16:45:19;;;;;;;;;;;;;;;;;;5020495;28;19973;-77
2022/10/20 16:47:45;;;;;;;;;;;;;;;;;;5022282;28;19925;-79
2022/10/20 16:50:12;;;;;;;;;;;;;;;;;;5021496;28;19926;-78
2022/10/20 16:52:39;;;;;;;;;;;;;;;;;;5021145;28;19925;-79
2022/10/20 16:55:06;;;;;;;;;;;;;;;;;;5020227;28;19926;-77
2022/10/20 16:57:36;;;;;;;;;;;;;;;;;;5021797;28;19965;-80